This is the latest recevied weather packets stored in our database for station/object VK4ZPK-13. If no packets are shown the sender has not sent any weather packets the latest 10 day(s).
| Time | Temp. | Humidity | Pressure | Rain* | Wind** | Luminosity | Snow |
|---|---|---|---|---|---|---|---|
| 1788186679 | 16.67° C | 91% | 1025.3 hPa | 0 mm | - | - | - |
| 1788184879 | 16.67° C | 92% | 1025.3 hPa | 0 mm | - | - | - |
| 1788181279 | 16.67° C | 91% | 1025.5 hPa | 0 mm | - | - | - |
| 1788179480 | 16.67° C | 90% | 1025.5 hPa | 0 mm | - | - | - |
| 1788177679 | 16.67° C | 89% | 1025.6 hPa | 0 mm | - | - | - |
| 1788175879 | 16.67° C | 88% | 1025.6 hPa | 0 mm | - | - | - |
| 1788174079 | 16.67° C | 87% | 1025.7 hPa | 0 mm | - | - | - |
| 1788172280 | 17.22° C | 83% | 1026.1 hPa | 0 mm | - | - | - |
| 1788170479 | 17.78° C | 78% | 1025.7 hPa | 0 mm | - | - | - |
| 1788168679 | 17.78° C | 76% | 1025.3 hPa | 0 mm | - | - | - |
| 1788166879 | 18.33° C | 73% | 1025.1 hPa | 0 mm | - | - | - |
| 1788165079 | 18.89° C | 72% | 1024.6 hPa | 0 mm | - | - | - |
| 1788163279 | 20° C | 70% | 1024.4 hPa | 0 mm | - | - | - |
| 1788161479 | 20.56° C | 68% | 1024 hPa | 0 mm | - | - | - |
| 1788159679 | 21.11° C | 65% | 1023.8 hPa | 0 mm | - | - | - |
| 1788157880 | 21.67° C | 64% | 1023.5 hPa | 0 mm | - | - | - |
| 1788156079 | 21.67° C | 66% | 1023.3 hPa | 0 mm | - | - | - |
| 1788154279 | 21.67° C | 65% | 1023.5 hPa | 0 mm | - | - | - |
| 1788152479 | 21.67° C | 65% | 1023.7 hPa | 0 mm | - | - | - |
| 1788150679 | 21.67° C | 65% | 1023.8 hPa | 0 mm | - | - | - |
| 1788148879 | 21.67° C | 66% | 1023.9 hPa | 0 mm | - | - | - |
| 1788147079 | 22.78° C | 65% | 1023.9 hPa | 0 mm | - | - | - |
| 1788145279 | 22.78° C | 60% | 1024 hPa | 0 mm | - | - | - |
| 1788121879 | 13.89° C | 92% | 1024.4 hPa | 0 mm | - | - | - |
| 1788118279 | 13.89° C | 92% | 1023.9 hPa | 0 mm | - | - | - |
* Rain latest hour (hover to see other rain measurements)
** Current wind speed in m/s (hover to see current wind gust speed)